createdAt,value
2022-08-19T00:01:52.748Z,13.43
2022-08-19T00:03:56.392Z,12.33
2022-08-19T00:06:00.369Z,13.23
2022-08-19T00:08:04.317Z,13.13
2022-08-19T00:10:08.797Z,13.67
2022-08-19T00:12:12.299Z,13.20
2022-08-19T00:14:18.002Z,13.93
2022-08-19T00:16:26.105Z,12.80
2022-08-19T00:18:29.890Z,13.00
2022-08-19T00:20:32.782Z,12.63
2022-08-19T00:22:35.764Z,13.13
2022-08-19T00:24:39.539Z,13.33
2022-08-19T00:26:43.565Z,15.43
2022-08-19T00:28:47.292Z,12.80
2022-08-19T00:30:50.321Z,14.87
2022-08-19T00:32:56.169Z,12.90
2022-08-19T00:34:59.370Z,13.50
2022-08-19T00:37:02.634Z,13.43
2022-08-19T00:39:05.967Z,15.13
2022-08-19T00:41:09.934Z,14.40
2022-08-19T00:43:14.186Z,15.57
2022-08-19T00:45:21.009Z,15.60
2022-08-19T00:47:24.018Z,14.60
2022-08-19T00:49:33.677Z,14.00
2022-08-19T00:51:37.344Z,15.60
2022-08-19T00:53:40.581Z,14.77
2022-08-19T00:55:46.696Z,14.43
2022-08-19T00:57:55.347Z,14.53
2022-08-19T01:00:02.570Z,14.20
2022-08-19T01:02:06.936Z,13.60
2022-08-19T01:04:10.356Z,16.60
2022-08-19T01:06:15.396Z,15.57
2022-08-19T01:08:24.420Z,17.90
2022-08-19T01:10:34.729Z,13.13
2022-08-19T01:12:39.773Z,16.10
2022-08-19T01:14:44.794Z,17.47
2022-08-19T01:16:48.728Z,15.50
2022-08-19T01:18:52.104Z,15.30
2022-08-19T01:20:58.507Z,14.93
2022-08-19T01:23:03.013Z,13.40
2022-08-19T01:25:14.707Z,16.97
2022-08-19T01:27:18.595Z,16.17
2022-08-19T01:29:23.485Z,15.90
2022-08-19T01:31:31.419Z,15.43
2022-08-19T01:33:35.855Z,17.07
2022-08-19T01:35:38.850Z,14.97
2022-08-19T01:37:47.351Z,17.60
2022-08-19T01:39:51.616Z,15.27
2022-08-19T01:41:55.285Z,14.73
2022-08-19T01:44:13.434Z,16.57
2022-08-19T01:46:24.960Z,14.67
2022-08-19T01:48:30.146Z,17.63
2022-08-19T01:50:34.010Z,15.93
2022-08-19T01:52:37.543Z,15.67
2022-08-19T01:54:40.480Z,15.73
2022-08-19T01:56:44.703Z,18.60
2022-08-19T01:58:51.762Z,17.23
2022-08-19T02:00:54.581Z,14.73
2022-08-19T02:02:57.691Z,15.33
2022-08-19T02:05:00.522Z,15.97
2022-08-19T02:07:03.548Z,15.93
2022-08-19T02:09:07.594Z,16.03
2022-08-19T02:11:10.377Z,15.50
2022-08-19T02:13:15.610Z,15.00
2022-08-19T02:15:24.589Z,19.60
2022-08-19T02:17:27.473Z,17.53
2022-08-19T02:19:30.311Z,17.10
2022-08-19T02:21:33.320Z,16.37
2022-08-19T02:23:36.150Z,17.53
2022-08-19T02:25:39.887Z,15.43
2022-08-19T02:27:43.907Z,14.63
2022-08-19T02:29:50.071Z,15.93
2022-08-19T02:31:52.973Z,15.13
2022-08-19T02:33:56.722Z,15.70
2022-08-19T02:35:59.807Z,15.47
2022-08-19T02:38:25.703Z,14.13
2022-08-19T02:40:28.799Z,15.33
2022-08-19T02:42:32.284Z,16.30
2022-08-19T02:44:35.073Z,15.67
2022-08-19T02:46:39.449Z,15.07
2022-08-19T02:48:42.343Z,15.10
2022-08-19T02:50:53.104Z,16.27
2022-08-19T02:52:56.554Z,17.10
2022-08-19T02:55:01.150Z,15.90
2022-08-19T02:57:04.626Z,16.50
2022-08-19T02:59:09.244Z,14.73
2022-08-19T03:01:22.547Z,14.60
2022-08-19T03:03:27.651Z,16.87
2022-08-19T03:05:47.913Z,16.70
2022-08-19T03:07:53.366Z,18.07
2022-08-19T03:09:56.222Z,19.10
2022-08-19T03:11:59.045Z,17.67
2022-08-19T03:14:04.061Z,18.30
2022-08-19T03:16:07.860Z,17.93
2022-08-19T03:18:11.559Z,19.67
2022-08-19T03:20:17.299Z,17.80
2022-08-19T03:22:20.145Z,20.10
2022-08-19T03:24:24.130Z,21.63
2022-08-19T03:26:27.158Z,21.47
2022-08-19T03:28:30.523Z,20.90
2022-08-19T03:30:33.647Z,21.63
2022-08-19T03:32:36.544Z,18.27
2022-08-19T03:34:48.232Z,18.20
2022-08-19T03:36:52.806Z,19.87
2022-08-19T03:38:59.946Z,19.23
2022-08-19T03:41:08.830Z,20.47
2022-08-19T03:43:11.721Z,20.27
2022-08-19T03:45:14.687Z,19.57
2022-08-19T03:47:17.847Z,19.70
2022-08-19T03:49:21.711Z,22.40
2022-08-19T03:51:33.145Z,23.67
2022-08-19T03:53:37.767Z,25.90
2022-08-19T03:55:42.173Z,25.63
2022-08-19T03:57:46.148Z,26.13
2022-08-19T03:59:48.982Z,26.50
2022-08-19T04:01:51.859Z,24.73
2022-08-19T04:03:55.585Z,25.50
2022-08-19T04:05:58.632Z,24.87
2022-08-19T04:08:01.540Z,26.47
2022-08-19T04:10:07.100Z,26.23
2022-08-19T04:12:13.518Z,24.90
2022-08-19T04:14:18.384Z,25.50
2022-08-19T04:16:22.136Z,25.90
2022-08-19T04:18:38.992Z,26.57
2022-08-19T04:20:47.411Z,26.40
2022-08-19T04:22:50.286Z,25.80
2022-08-19T04:24:53.083Z,26.57
2022-08-19T04:26:57.258Z,25.77
2022-08-19T04:29:00.196Z,27.20
2022-08-19T04:31:02.968Z,25.57
2022-08-19T04:33:05.964Z,26.60
2022-08-19T04:35:16.937Z,24.77
2022-08-19T04:37:21.425Z,26.30
2022-08-19T04:39:48.168Z,26.40
2022-08-19T04:42:23.170Z,26.30
2022-08-19T04:44:46.068Z,25.37
2022-08-19T04:46:51.454Z,26.70
2022-08-19T04:48:54.776Z,25.67
2022-08-19T04:50:59.587Z,26.23
2022-08-19T04:53:02.479Z,25.50
2022-08-19T04:55:06.972Z,25.13
2022-08-19T04:57:11.486Z,26.80
2022-08-19T04:59:15.605Z,27.43
2022-08-19T05:01:23.339Z,27.53
2022-08-19T05:03:30.090Z,26.07
2022-08-19T05:05:33.499Z,26.73
2022-08-19T05:07:48.398Z,26.77
2022-08-19T05:09:58.647Z,26.77
2022-08-19T05:12:02.310Z,27.23
2022-08-19T05:14:05.138Z,25.20
2022-08-19T05:16:08.800Z,25.80
2022-08-19T05:18:30.536Z,26.27
2022-08-19T05:20:56.094Z,26.70
2022-08-19T05:22:58.862Z,26.50
2022-08-19T05:25:12.580Z,26.40
2022-08-19T05:27:16.132Z,25.60
2022-08-19T05:29:21.703Z,27.50
2022-08-19T05:31:25.246Z,27.90
2022-08-19T05:33:29.678Z,25.60
2022-08-19T05:35:34.614Z,26.00
2022-08-19T05:37:37.794Z,25.50
2022-08-19T05:39:41.365Z,27.10
2022-08-19T05:41:44.476Z,26.93
2022-08-19T05:43:47.380Z,26.50
2022-08-19T05:45:51.625Z,27.57
2022-08-19T05:47:54.903Z,25.23
2022-08-19T05:49:59.065Z,26.13
2022-08-19T05:52:05.400Z,27.77
2022-08-19T05:54:09.525Z,26.63
2022-08-19T05:56:16.897Z,24.97
2022-08-19T05:58:19.774Z,26.33
2022-08-19T06:00:26.158Z,25.03
2022-08-19T06:02:29.764Z,23.63
2022-08-19T06:04:32.641Z,26.53
2022-08-19T06:06:37.453Z,26.40
2022-08-19T06:08:40.467Z,26.57
2022-08-19T06:10:43.219Z,24.30
2022-08-19T06:12:46.218Z,25.63
2022-08-19T06:15:00.803Z,25.50
2022-08-19T06:17:07.296Z,25.63
2022-08-19T06:19:12.868Z,26.23
2022-08-19T06:21:15.721Z,25.23
2022-08-19T06:23:21.157Z,26.17
2022-08-19T06:25:30.427Z,27.40
2022-08-19T06:27:34.463Z,26.23
2022-08-19T06:29:37.651Z,25.57
2022-08-19T06:31:44.284Z,25.20
2022-08-19T06:33:47.433Z,24.37
2022-08-19T06:35:53.186Z,25.73
2022-08-19T06:37:56.146Z,25.53
2022-08-19T06:40:00.800Z,25.50
2022-08-19T06:42:07.955Z,23.47
2022-08-19T06:44:14.168Z,25.43
2022-08-19T06:46:19.779Z,24.03
2022-08-19T06:48:22.576Z,25.60
2022-08-19T06:50:28.958Z,23.23
2022-08-19T06:52:31.942Z,23.77
2022-08-19T06:54:37.782Z,25.30
2022-08-19T06:57:02.927Z,24.30
2022-08-19T06:59:07.926Z,25.37
2022-08-19T07:01:11.508Z,24.53
2022-08-19T07:03:14.680Z,23.93
2022-08-19T07:05:18.412Z,23.20
2022-08-19T07:07:23.342Z,24.93
2022-08-19T07:09:26.208Z,25.10
2022-08-19T07:11:29.885Z,23.33
2022-08-19T07:13:34.785Z,24.50
2022-08-19T07:15:39.814Z,23.93
2022-08-19T07:17:44.248Z,22.87
2022-08-19T07:19:47.772Z,22.20
2022-08-19T07:21:53.911Z,23.97
2022-08-19T07:23:57.748Z,23.67
2022-08-19T07:26:05.982Z,23.17
2022-08-19T07:28:20.233Z,22.47
2022-08-19T07:30:29.137Z,23.37
2022-08-19T07:32:32.630Z,21.90
2022-08-19T07:34:38.813Z,22.07
2022-08-19T07:36:44.869Z,22.27
2022-08-19T07:38:49.576Z,21.30
2022-08-19T07:40:52.623Z,21.57
2022-08-19T07:42:55.474Z,20.53
2022-08-19T07:44:59.267Z,21.27
2022-08-19T07:47:04.276Z,21.10
2022-08-19T07:49:09.444Z,19.63
2022-08-19T07:51:14.350Z,19.90
2022-08-19T07:53:19.764Z,19.63
2022-08-19T07:55:41.967Z,19.40
2022-08-19T07:57:46.524Z,18.77
2022-08-19T07:59:49.351Z,18.10
2022-08-19T08:01:53.667Z,18.20
2022-08-19T08:04:17.374Z,19.33
2022-08-19T08:06:37.610Z,18.00
2022-08-19T08:08:57.735Z,17.50
2022-08-19T08:11:01.368Z,16.80
2022-08-19T08:13:09.890Z,17.33
2022-08-19T08:15:17.518Z,17.37
2022-08-19T08:17:42.008Z,17.10
2022-08-19T08:19:48.885Z,17.50
2022-08-19T08:21:56.074Z,16.00
2022-08-19T08:26:06.001Z,16.30
2022-08-19T08:28:11.442Z,15.60
2022-08-19T08:30:25.261Z,14.80
2022-08-19T08:32:28.639Z,15.70
2022-08-19T08:34:31.475Z,15.73
2022-08-19T08:36:42.591Z,15.37
2022-08-19T08:38:47.377Z,15.30
2022-08-19T08:40:55.283Z,15.50
2022-08-19T08:43:06.077Z,14.97
2022-08-19T08:45:16.923Z,14.43
2022-08-19T08:47:22.093Z,13.70
2022-08-19T08:49:38.855Z,14.93
2022-08-19T08:51:48.300Z,13.67
2022-08-19T08:54:07.672Z,13.50
2022-08-19T08:56:16.982Z,13.90
2022-08-19T08:58:31.625Z,12.97
2022-08-19T09:00:38.932Z,13.00
2022-08-19T09:02:41.788Z,13.27
2022-08-19T09:04:47.281Z,13.23
2022-08-19T09:07:18.735Z,12.77
2022-08-19T09:09:33.417Z,13.23
2022-08-19T09:11:52.857Z,12.80
2022-08-19T09:14:07.886Z,13.50
2022-08-19T09:16:14.984Z,13.03
2022-08-19T09:18:19.387Z,12.60
2022-08-19T09:20:26.204Z,13.00
2022-08-19T09:22:31.059Z,12.83
2022-08-19T09:24:33.958Z,12.90
2022-08-19T09:26:52.355Z,12.60
2022-08-19T09:28:56.525Z,12.53
2022-08-19T09:31:04.082Z,12.40
2022-08-19T09:33:07.928Z,12.33
2022-08-19T09:35:11.394Z,11.43
2022-08-19T09:37:15.239Z,11.70
2022-08-19T09:39:19.527Z,13.30
2022-08-19T09:41:25.774Z,12.60
2022-08-19T09:43:44.350Z,12.53
2022-08-19T09:45:50.953Z,12.13
2022-08-19T09:47:55.253Z,11.93
2022-08-19T09:49:59.036Z,11.83
2022-08-19T09:52:02.696Z,12.03
2022-08-19T09:54:06.317Z,12.33
2022-08-19T09:56:10.576Z,15.83
2022-08-19T09:58:13.376Z,12.50
2022-08-19T10:00:16.589Z,12.73
2022-08-19T10:02:22.317Z,12.70
2022-08-19T10:04:45.376Z,13.30
2022-08-19T10:06:48.573Z,12.87
2022-08-19T10:08:56.649Z,14.17
2022-08-19T10:11:00.248Z,13.50
2022-08-19T10:13:27.543Z,13.47
2022-08-19T10:15:30.435Z,13.17
2022-08-19T10:17:55.024Z,13.10
2022-08-19T10:19:58.495Z,13.57
2022-08-19T10:22:05.827Z,12.77
2022-08-19T10:24:13.063Z,12.93
2022-08-19T10:26:18.160Z,13.00
2022-08-19T10:28:21.948Z,13.10
2022-08-19T10:30:28.735Z,14.03
2022-08-19T10:32:34.092Z,12.07
2022-08-19T10:34:48.321Z,13.17
2022-08-19T10:36:56.464Z,12.57
2022-08-19T10:39:08.414Z,12.17
2022-08-19T10:41:14.658Z,12.97
2022-08-19T10:43:19.971Z,12.03
2022-08-19T10:45:26.926Z,12.27
2022-08-19T10:47:32.644Z,11.60
2022-08-19T10:49:56.186Z,12.23
2022-08-19T10:52:18.978Z,12.20
2022-08-19T10:54:31.217Z,11.70
2022-08-19T10:56:53.926Z,11.67
2022-08-19T10:58:58.923Z,11.80
2022-08-19T11:01:01.893Z,11.63
2022-08-19T11:03:06.351Z,11.23
2022-08-19T11:05:12.652Z,11.27
2022-08-19T11:07:16.575Z,10.83
2022-08-19T11:09:21.436Z,10.83
2022-08-19T11:11:24.749Z,11.90
2022-08-19T11:13:28.021Z,11.07
2022-08-19T11:15:33.327Z,11.53
2022-08-19T11:17:36.964Z,10.67
2022-08-19T11:19:41.538Z,11.10
2022-08-19T11:21:46.609Z,10.63
2022-08-19T11:23:54.864Z,11.00
2022-08-19T11:25:57.985Z,10.50
2022-08-19T11:28:00.729Z,10.43
2022-08-19T11:30:04.566Z,11.80
2022-08-19T11:32:13.718Z,11.70
2022-08-19T11:34:21.974Z,9.20
2022-08-19T11:36:26.339Z,10.00
2022-08-19T11:38:30.166Z,10.33
2022-08-19T11:40:34.319Z,9.40
2022-08-19T11:42:54.582Z,9.03
2022-08-19T11:44:57.833Z,8.90
2022-08-19T11:47:09.024Z,9.37
2022-08-19T11:49:14.180Z,9.03
2022-08-19T11:51:20.892Z,8.80
2022-08-19T11:53:25.972Z,8.77
2022-08-19T11:55:28.793Z,8.10
2022-08-19T11:57:31.679Z,8.07
2022-08-19T11:59:34.591Z,8.37
2022-08-19T12:01:37.427Z,7.93
2022-08-19T12:03:41.648Z,7.73
2022-08-19T12:05:45.355Z,7.80
2022-08-19T12:07:48.249Z,7.73
2022-08-19T12:09:52.683Z,7.70
2022-08-19T12:11:56.340Z,7.67
2022-08-19T12:13:59.426Z,7.17
2022-08-19T12:16:03.035Z,7.80
2022-08-19T12:18:06.845Z,7.20
2022-08-19T12:20:12.376Z,7.40
2022-08-19T12:22:15.174Z,7.60
2022-08-19T12:24:21.472Z,7.23
2022-08-19T12:26:26.587Z,7.13
2022-08-19T12:28:29.553Z,7.20
2022-08-19T12:30:32.647Z,6.70
2022-08-19T12:32:35.525Z,6.50
2022-08-19T12:34:38.885Z,6.40
2022-08-19T12:36:41.671Z,6.63
2022-08-19T12:38:45.048Z,6.70
2022-08-19T12:40:48.899Z,6.33
2022-08-19T12:42:53.025Z,6.30
2022-08-19T12:44:56.051Z,7.73
2022-08-19T12:46:59.407Z,7.60
2022-08-19T12:49:02.753Z,7.60
2022-08-19T12:51:21.348Z,6.23
2022-08-19T12:53:24.846Z,6.77
2022-08-19T12:55:29.215Z,6.30
2022-08-19T12:57:33.463Z,6.57
2022-08-19T12:59:38.455Z,7.07
2022-08-19T13:01:42.170Z,6.87
2022-08-19T13:03:47.316Z,7.23
2022-08-19T13:05:51.339Z,9.40
2022-08-19T13:07:56.904Z,10.83
2022-08-19T13:09:59.783Z,9.80
2022-08-19T13:12:08.003Z,8.97
2022-08-19T13:14:12.146Z,9.60
2022-08-19T13:16:17.386Z,9.17
2022-08-19T13:18:20.163Z,7.47
2022-08-19T13:20:23.893Z,7.50
2022-08-19T13:22:26.827Z,7.50
2022-08-19T13:24:33.835Z,8.40
2022-08-19T13:26:36.864Z,8.47
2022-08-19T13:28:57.498Z,8.70
2022-08-19T13:31:18.005Z,8.20
2022-08-19T13:33:22.236Z,8.83
2022-08-19T13:35:25.179Z,8.67
2022-08-19T13:37:41.913Z,8.23
2022-08-19T13:39:46.237Z,7.83
2022-08-19T13:41:50.255Z,9.00
2022-08-19T13:43:53.438Z,9.00
2022-08-19T13:45:57.818Z,8.77
2022-08-19T13:48:00.950Z,10.60
2022-08-19T13:50:06.655Z,9.10
2022-08-19T13:52:09.537Z,9.40
2022-08-19T13:54:13.271Z,9.20
2022-08-19T13:56:24.164Z,8.50
2022-08-19T13:58:29.267Z,8.50
2022-08-19T14:00:34.725Z,8.60
2022-08-19T14:02:38.531Z,9.47
2022-08-19T14:04:41.693Z,8.57
2022-08-19T14:06:45.984Z,9.03
2022-08-19T14:08:49.206Z,9.17
2022-08-19T14:10:52.028Z,9.00
2022-08-19T14:12:56.680Z,9.17
2022-08-19T14:14:59.584Z,9.67
2022-08-19T14:17:02.357Z,8.90
2022-08-19T14:19:05.239Z,8.70
2022-08-19T14:21:08.125Z,8.93
2022-08-19T14:23:13.173Z,9.20
2022-08-19T14:25:18.469Z,8.73
2022-08-19T14:27:21.287Z,8.17
2022-08-19T14:29:24.090Z,9.00
2022-08-19T14:31:30.723Z,8.23
2022-08-19T14:33:34.069Z,8.50
2022-08-19T14:35:37.264Z,8.80
2022-08-19T14:37:45.220Z,8.60
2022-08-19T14:39:50.243Z,7.80
2022-08-19T14:41:53.885Z,8.37
2022-08-19T14:43:56.645Z,9.70
2022-08-19T14:45:59.434Z,9.47
2022-08-19T14:48:02.680Z,8.50
2022-08-19T14:50:07.377Z,8.87
2022-08-19T14:52:13.537Z,9.03
2022-08-19T14:54:16.341Z,9.03
2022-08-19T14:56:26.932Z,8.43
2022-08-19T14:58:30.563Z,8.80
2022-08-19T15:00:33.490Z,8.07
2022-08-19T15:02:39.836Z,8.20
2022-08-19T15:04:42.755Z,8.10
2022-08-19T15:06:45.816Z,8.43
2022-08-19T15:08:48.697Z,8.67
2022-08-19T15:10:51.471Z,8.13
2022-08-19T15:12:56.223Z,8.47
2022-08-19T15:14:59.320Z,7.77
2022-08-19T15:17:02.817Z,8.10
2022-08-19T15:19:05.719Z,7.43
2022-08-19T15:21:08.630Z,7.97
2022-08-19T15:23:12.828Z,7.40
2022-08-19T15:25:19.413Z,7.67
2022-08-19T15:27:22.537Z,7.97
2022-08-19T15:29:28.135Z,7.57
2022-08-19T15:31:32.993Z,7.87
2022-08-19T15:33:37.831Z,7.60
2022-08-19T15:35:41.944Z,7.63
2022-08-19T15:37:45.917Z,7.23
2022-08-19T15:39:49.013Z,7.40
2022-08-19T15:41:52.067Z,7.10
2022-08-19T15:43:58.812Z,6.80
2022-08-19T15:46:02.986Z,6.60
2022-08-19T15:48:06.654Z,6.40
2022-08-19T15:50:11.218Z,6.70
2022-08-19T15:52:14.241Z,5.97
2022-08-19T15:54:21.559Z,6.40
2022-08-19T15:56:27.169Z,6.33
2022-08-19T15:58:48.256Z,6.30
2022-08-19T16:01:12.540Z,6.13
2022-08-19T16:03:34.542Z,6.27
2022-08-19T16:06:01.435Z,6.30
2022-08-19T16:08:04.495Z,6.40
2022-08-19T16:10:26.376Z,5.53
2022-08-19T16:12:30.944Z,6.10
2022-08-19T16:14:38.090Z,5.80
2022-08-19T16:16:41.004Z,6.13
2022-08-19T16:18:47.506Z,6.33
2022-08-19T16:20:50.354Z,5.90
2022-08-19T16:22:53.663Z,6.20
2022-08-19T16:24:56.458Z,5.87
2022-08-19T16:26:59.460Z,6.50
2022-08-19T16:29:04.067Z,7.10
2022-08-19T16:31:13.479Z,5.83
2022-08-19T16:33:22.930Z,6.13
2022-08-19T16:35:27.393Z,6.40
2022-08-19T16:37:30.445Z,6.33
2022-08-19T16:39:33.448Z,6.63
2022-08-19T16:41:37.589Z,6.77
2022-08-19T16:43:40.423Z,6.23
2022-08-19T16:45:44.051Z,6.50
2022-08-19T16:47:47.042Z,6.37
2022-08-19T16:49:53.656Z,6.63
2022-08-19T16:51:59.522Z,6.20
2022-08-19T16:54:03.466Z,7.40
2022-08-19T16:56:06.769Z,6.50
2022-08-19T16:58:09.807Z,6.83
2022-08-19T17:00:14.090Z,6.43
2022-08-19T17:02:17.964Z,6.90
2022-08-19T17:04:21.095Z,6.60
2022-08-19T17:06:26.616Z,7.40
2022-08-19T17:08:32.632Z,7.17
2022-08-19T17:10:35.511Z,7.27
2022-08-19T17:12:38.565Z,7.40
2022-08-19T17:14:45.208Z,6.70
2022-08-19T17:16:48.497Z,7.30
2022-08-19T17:18:52.425Z,7.40
2022-08-19T17:20:56.609Z,7.50
2022-08-19T17:23:00.321Z,7.27
2022-08-19T17:25:04.894Z,7.00
2022-08-19T17:27:07.793Z,6.93
2022-08-19T17:29:10.575Z,7.30
2022-08-19T17:31:13.376Z,6.97
2022-08-19T17:33:16.692Z,7.60
2022-08-19T17:35:24.193Z,7.20
2022-08-19T17:37:28.130Z,7.17
2022-08-19T17:39:30.996Z,6.50
2022-08-19T17:41:42.789Z,6.90
2022-08-19T17:43:45.950Z,7.10
2022-08-19T17:45:48.741Z,7.30
2022-08-19T17:47:51.753Z,6.60
2022-08-19T17:49:54.686Z,7.30
2022-08-19T17:51:59.433Z,7.07
2022-08-19T17:54:04.316Z,6.90
2022-08-19T17:56:07.961Z,7.10
2022-08-19T17:58:12.143Z,7.57
2022-08-19T18:00:18.342Z,7.33
2022-08-19T18:02:22.377Z,7.27
2022-08-19T18:04:26.470Z,7.10
2022-08-19T18:06:29.812Z,7.77
2022-08-19T18:08:33.707Z,8.53
2022-08-19T18:10:37.886Z,9.40
2022-08-19T18:12:40.734Z,9.43
2022-08-19T18:14:45.250Z,9.20
2022-08-19T18:16:48.114Z,9.70
2022-08-19T18:18:52.604Z,9.90
2022-08-19T18:20:56.397Z,10.87
2022-08-19T18:23:44.055Z,10.70
2022-08-19T18:25:26.555Z,10.13
2022-08-19T18:27:29.469Z,10.40
2022-08-19T18:29:34.108Z,11.13
2022-08-19T18:31:39.646Z,10.40
2022-08-19T18:33:44.341Z,11.93
2022-08-19T18:35:52.080Z,9.93
2022-08-19T18:37:54.999Z,10.90
2022-08-19T18:40:15.560Z,10.73
2022-08-19T18:42:36.872Z,10.43
2022-08-19T18:44:59.862Z,11.43
2022-08-19T18:47:21.148Z,10.20
2022-08-19T18:49:27.080Z,10.83
2022-08-19T18:51:31.618Z,11.53
2022-08-19T18:53:36.062Z,11.07
2022-08-19T18:55:39.233Z,10.33
2022-08-19T18:57:42.075Z,11.00
2022-08-19T18:59:46.893Z,11.27
2022-08-19T19:01:50.555Z,11.60
2022-08-19T19:03:56.389Z,11.23
2022-08-19T19:05:59.548Z,11.60
2022-08-19T19:08:02.407Z,11.90
2022-08-19T19:10:05.764Z,12.30
2022-08-19T19:12:11.326Z,12.03
2022-08-19T19:14:45.620Z,11.27
2022-08-19T19:16:45.907Z,11.77
2022-08-19T19:18:52.400Z,10.63
2022-08-19T19:20:58.456Z,10.20
2022-08-19T19:23:03.423Z,11.90
2022-08-19T19:25:08.280Z,12.13
2022-08-19T19:27:13.095Z,11.10
2022-08-19T19:29:16.856Z,11.17
2022-08-19T19:31:22.810Z,11.60
2022-08-19T19:33:26.154Z,11.70
2022-08-19T19:35:30.239Z,11.77
2022-08-19T19:37:34.830Z,11.40
2022-08-19T19:39:45.927Z,11.07
2022-08-19T19:41:54.055Z,11.13
2022-08-19T19:44:31.001Z,10.50
2022-08-19T19:46:24.436Z,10.20
2022-08-19T19:48:29.006Z,9.30
2022-08-19T19:50:32.604Z,10.53
2022-08-19T19:52:37.235Z,10.07
2022-08-19T20:24:08.653Z,8.60
2022-08-19T20:26:26.757Z,8.77
2022-08-19T20:30:59.554Z,6.80
2022-08-19T20:35:29.614Z,8.00
2022-08-19T20:37:34.764Z,7.27
2022-08-19T20:39:38.003Z,6.57
2022-08-19T20:41:43.216Z,6.00
2022-08-19T20:43:46.472Z,5.53
2022-08-19T20:45:50.238Z,5.37
2022-08-19T20:47:53.628Z,4.80
2022-08-19T20:49:57.749Z,4.63
2022-08-19T20:52:00.819Z,4.57
2022-08-19T20:54:03.895Z,4.20
2022-08-19T20:56:45.568Z,4.33
2022-08-19T20:58:53.512Z,3.80
2022-08-19T21:01:01.585Z,3.70
2022-08-19T21:03:04.760Z,3.43
2022-08-19T21:05:08.905Z,3.27
2022-08-19T21:07:12.149Z,3.40
2022-08-19T21:09:15.205Z,3.00
2022-08-19T21:11:20.683Z,3.23
2022-08-19T21:13:26.374Z,2.80
2022-08-19T21:15:29.417Z,2.93
2022-08-19T21:17:32.441Z,2.60
2022-08-19T21:19:35.436Z,2.53
2022-08-19T21:21:38.449Z,2.43
2022-08-19T21:23:41.634Z,2.40
2022-08-19T21:25:54.267Z,2.30
2022-08-19T21:27:59.013Z,2.43
2022-08-19T21:30:03.405Z,2.40
2022-08-19T21:32:06.853Z,2.43
2022-08-19T21:34:09.862Z,2.30
2022-08-19T21:36:12.905Z,2.00
2022-08-19T21:38:16.218Z,2.23
2022-08-19T21:40:20.309Z,2.13
2022-08-19T21:42:24.124Z,2.00
2022-08-19T21:44:27.139Z,1.80
2022-08-19T21:46:33.062Z,2.07
2022-08-19T21:48:36.173Z,1.87
2022-08-19T21:50:39.066Z,1.90
2022-08-19T21:52:42.084Z,1.60
2022-08-19T21:54:45.082Z,2.00
2022-08-19T21:56:49.113Z,1.87
2022-08-19T21:58:52.064Z,1.50
2022-08-19T22:00:55.394Z,1.80
2022-08-19T22:03:01.302Z,1.90
2022-08-19T22:05:05.048Z,1.63
2022-08-19T22:07:09.959Z,1.90
2022-08-19T22:09:13.162Z,1.87
2022-08-19T22:11:17.184Z,1.70
2022-08-19T22:13:20.459Z,1.80
2022-08-19T22:15:26.126Z,1.90
2022-08-19T22:17:31.573Z,1.30
2022-08-19T22:19:35.959Z,1.50
2022-08-19T22:21:40.193Z,1.80
2022-08-19T22:23:44.631Z,1.50
2022-08-19T22:25:50.226Z,1.33
2022-08-19T22:27:53.305Z,1.30
2022-08-19T22:30:01.205Z,1.50
2022-08-19T22:32:26.339Z,1.30
2022-08-19T22:34:31.053Z,1.33
2022-08-19T22:36:35.735Z,1.50
2022-08-19T22:38:39.269Z,1.50
2022-08-19T22:40:46.260Z,1.60
2022-08-19T22:42:50.820Z,1.10
2022-08-19T22:44:53.857Z,1.00
2022-08-19T22:46:57.588Z,1.17
2022-08-19T22:49:01.417Z,1.30
2022-08-19T22:51:22.159Z,1.27
2022-08-19T22:53:29.496Z,1.00
2022-08-19T22:55:38.476Z,1.30
2022-08-19T22:57:41.677Z,1.30
2022-08-19T22:59:44.765Z,1.50
2022-08-19T23:01:48.608Z,1.40
2022-08-19T23:03:51.872Z,1.77
2022-08-19T23:05:56.147Z,1.50
2022-08-19T23:07:59.789Z,1.53
2022-08-19T23:10:07.113Z,1.20
2022-08-19T23:12:13.150Z,1.30
2022-08-19T23:14:17.673Z,1.50
2022-08-19T23:16:21.177Z,1.70
2022-08-19T23:18:24.758Z,1.77
2022-08-19T23:20:32.959Z,1.57
2022-08-19T23:22:39.555Z,1.40
2022-08-19T23:24:43.120Z,1.10
2022-08-19T23:27:01.662Z,1.43
2022-08-19T23:29:23.481Z,1.47
2022-08-19T23:31:27.125Z,1.40
2022-08-19T23:33:50.964Z,1.30
2022-08-19T23:35:57.483Z,1.60
2022-08-19T23:38:01.203Z,1.47
2022-08-19T23:40:05.894Z,1.43
2022-08-19T23:42:12.614Z,1.40
2022-08-19T23:44:16.123Z,1.60
2022-08-19T23:46:28.150Z,1.73
2022-08-19T23:48:33.760Z,1.60
2022-08-19T23:50:38.524Z,1.83
2022-08-19T23:52:46.349Z,1.50
2022-08-19T23:54:49.426Z,1.50
2022-08-19T23:56:52.587Z,1.53
2022-08-19T23:58:57.030Z,1.60
